ADDS METAR Data INFO
IDs: Format: Raw Decoded Include TAF

Data at: 1314 UTC 21 May 2018

METAR for:KRZT (Chillicothe/Ross Cnt, OH, US)
Text:KRZT 211257Z AUTO 07005KT 10SM SCT065 SCT070 SCT100 18/16 A3017 RMK AO2
Temperature: 18.0°C ( 64°F)
Dewpoint: 16.0°C ( 61°F) [RH = 88%]
Pressure (altimeter):30.17 inches Hg (1021.8 mb)
Winds:from the ENE (70 degrees) at 6 MPH (5 knots; 2.6 m/s)
Visibility:10 or more sm (16+ km)
Ceiling:at least 12,000 feet AGL
Clouds: scattered clouds at 6500 feet AGL, scattered clouds at 7000 feet AGL, scattered clouds at 10000 feet AGL
QC Flag:automated observation with no human augmentation